Time;durP1;ratioP1;P1;durP2;ratioP2;P2;SDS_P1;SDS_P2;PMS_P1;PMS_P2;Temp;Humidity;BMP_temperature;BMP_pressure;BME280_temperature;BME280_humidity;BME280_pressure;Samples;Min_cycle;Max_cycle;Signal;HPM_P1;HPM_P2
2023/12/12 00:01:32;;;;;;;98.35;45.47;;;;;;;1.57;100.00;99355.66;5112211;28;20030;-75
2023/12/12 00:03:58;;;;;;;100.45;46.55;;;;;;;1.71;100.00;99350.41;5092819;28;20419;-75
2023/12/12 00:06:24;;;;;;;86.50;44.00;;;;;;;1.82;100.00;99343.75;5085674;28;20050;-75
2023/12/12 00:08:50;;;;;;;90.95;46.67;;;;;;;1.96;100.00;99337.66;5113113;28;20476;-74
2023/12/12 00:11:15;;;;;;;100.55;47.67;;;;;;;1.73;100.00;99345.44;5109016;28;20054;-73
2023/12/12 00:13:41;;;;;;;91.72;43.85;;;;;;;1.68;100.00;99331.66;5093444;28;20030;-73
2023/12/12 00:16:07;;;;;;;93.90;47.40;;;;;;;1.89;100.00;99317.81;5074654;28;20031;-73
2023/12/12 00:18:36;;;;;;;96.13;47.70;;;;;;;2.04;100.00;99308.66;5092737;28;20012;-73
2023/12/12 00:21:04;;;;;;;92.82;46.47;;;;;;;2.09;100.00;99281.03;5094329;28;20412;-74
2023/12/12 00:23:30;;;;;;;90.25;45.05;;;;;;;2.17;100.00;99274.09;5113099;28;20035;-73
2023/12/12 00:25:56;;;;;;;97.03;47.35;;;;;;;1.74;100.00;99272.63;5113112;28;20415;-73
2023/12/12 00:28:21;;;;;;;101.55;48.08;;;;;;;1.41;100.00;99280.44;5093466;28;20051;-73
2023/12/12 00:30:47;;;;;;;98.57;48.15;;;;;;;1.31;100.00;99288.72;5110679;28;20038;-73
2023/12/12 00:33:12;;;;;;;82.75;42.15;;;;;;;1.44;100.00;99281.81;5108806;28;20458;-74
2023/12/12 00:35:38;;;;;;;88.82;43.80;;;;;;;1.43;100.00;99282.91;5112883;28;20034;-73
2023/12/12 00:38:03;;;;;;;84.10;41.22;;;;;;;1.53;100.00;99274.63;5094366;28;20507;-73
2023/12/12 00:40:29;;;;;;;89.43;40.67;;;;;;;1.76;100.00;99266.84;5112988;28;20031;-73
2023/12/12 00:42:54;;;;;;;79.97;40.20;;;;;;;1.95;100.00;99269.78;5092782;28;20081;-73
2023/12/12 00:45:20;;;;;;;87.47;43.45;;;;;;;2.04;100.00;99276.34;5097474;28;20028;-74
2023/12/12 00:47:45;;;;;;;79.18;40.20;;;;;;;1.71;100.00;99286.13;5112588;28;20034;-73
2023/12/12 00:50:10;;;;;;;80.20;39.20;;;;;;;1.54;100.00;99282.59;5093794;28;20023;-73
2023/12/12 00:52:36;;;;;;;91.47;43.85;;;;;;;1.23;100.00;99304.72;5095388;28;20089;-73
2023/12/12 00:55:02;;;;;;;85.03;41.80;;;;;;;1.52;100.00;99289.50;5092157;28;20507;-74
2023/12/12 00:57:27;;;;;;;83.97;41.42;;;;;;;1.76;100.00;99284.19;5073858;28;20024;-73
2023/12/12 00:59:53;;;;;;;85.10;41.00;;;;;;;1.57;100.00;99283.97;5092048;28;20504;-73
2023/12/12 01:02:25;;;;;;;84.88;41.55;;;;;;;1.42;100.00;99284.03;5105964;28;20070;-73
2023/12/12 01:04:52;;;;;;;77.05;38.47;;;;;;;1.60;100.00;99279.84;5093251;28;20511;-73
2023/12/12 01:07:18;;;;;;;77.75;39.08;;;;;;;1.65;100.00;99288.94;5090606;28;20122;-74
2023/12/12 01:09:43;;;;;;;69.22;38.13;;;;;;;1.60;100.00;99282.59;5091954;28;20027;-73
2023/12/12 01:12:09;;;;;;;74.45;37.63;;;;;;;1.88;100.00;99283.06;5074739;28;20032;-73
2023/12/12 01:14:34;;;;;;;82.05;40.08;;;;;;;1.95;100.00;99264.28;5102157;28;20074;-73
2023/12/12 01:17:00;;;;;;;72.22;36.88;;;;;;;1.79;100.00;99278.09;5093928;28;20023;-73
2023/12/12 01:19:26;;;;;;;69.97;35.83;;;;;;;1.52;100.00;99284.81;5111546;28;20024;-74
2023/12/12 01:21:51;;;;;;;78.68;40.50;;;;;;;1.78;100.00;99276.47;5107003;28;20042;-74
2023/12/12 01:24:17;;;;;;;68.57;36.33;;;;;;;1.96;100.00;99266.72;5111966;28;20159;-74
2023/12/12 01:26:42;;;;;;;83.13;38.03;;;;;;;2.08;100.00;99265.59;5112055;28;20076;-74
2023/12/12 01:29:08;;;;;;;79.03;36.80;;;;;;;1.99;100.00;99267.28;5093281;28;20140;-74
2023/12/12 01:31:33;;;;;;;71.55;36.42;;;;;;;2.14;100.00;99277.41;5103024;28;20066;-74
2023/12/12 01:33:58;;;;;;;71.15;36.85;;;;;;;2.15;100.00;99284.59;5091588;28;20028;-74
2023/12/12 01:36:24;;;;;;;76.72;37.15;;;;;;;2.35;100.00;99278.97;5073374;28;20496;-74
2023/12/12 01:38:49;;;;;;;74.10;37.22;;;;;;;2.45;100.00;99282.78;5091413;28;20078;-74
2023/12/12 01:41:15;;;;;;;60.95;32.58;;;;;;;2.30;100.00;99273.50;5091396;28;20035;-74
2023/12/12 01:43:41;;;;;;;65.72;33.75;;;;;;;2.37;100.00;99281.47;5091333;28;20470;-75
2023/12/12 01:46:08;;;;;;;76.43;34.95;;;;;;;2.51;100.00;99287.16;5091434;28;20019;-74
2023/12/12 01:48:35;;;;;;;69.47;35.38;;;;;;;2.55;100.00;99273.59;5091297;28;20077;-74
2023/12/12 01:51:01;;;;;;;68.60;35.85;;;;;;;2.44;100.00;99261.81;5094767;28;20023;-74
2023/12/12 01:53:35;;;;;;;80.97;40.25;;;;;;;2.35;100.00;99239.47;5111116;28;20025;-74
2023/12/12 01:56:02;;;;;;;72.30;38.72;;;;;;;2.33;100.00;99237.03;5109090;28;20027;-75
2023/12/12 01:58:27;;;;;;;75.78;38.10;;;;;;;2.38;100.00;99236.97;5072979;28;20518;-74
2023/12/12 02:00:53;;;;;;;71.80;37.17;;;;;;;2.39;100.00;99233.09;5093406;28;20032;-74
2023/12/12 02:03:20;;;;;;;76.20;40.65;;;;;;;2.25;100.00;99223.81;5093262;28;20051;-74
2023/12/12 02:05:47;;;;;;;77.70;41.92;;;;;;;2.15;100.00;99199.88;5111485;28;20023;-74
2023/12/12 02:08:13;;;;;;;75.13;38.53;;;;;;;1.94;100.00;99199.19;5111043;28;20024;-75
2023/12/12 02:10:39;;;;;;;78.18;36.78;;;;;;;2.05;100.00;99198.00;5109525;28;20100;-73
2023/12/12 02:13:05;;;;;;;76.45;36.47;;;;;;;2.06;100.00;99201.59;5111385;28;20059;-74
2023/12/12 02:15:31;;;;;;;75.00;36.38;;;;;;;2.12;100.00;99214.25;5111432;28;20028;-75
2023/12/12 02:17:56;;;;;;;73.57;40.92;;;;;;;2.22;100.00;99216.13;5111298;28;20095;-74
2023/12/12 02:20:21;;;;;;;70.55;36.45;;;;;;;1.74;100.00;99214.72;5111415;28;20407;-74
2023/12/12 02:22:47;;;;;;;69.05;36.20;;;;;;;1.67;100.00;99216.94;5111099;28;20027;-74
2023/12/12 02:25:16;;;;;;;62.88;35.30;;;;;;;1.16;100.00;99210.47;5111492;28;20031;-74
2023/12/12 02:27:42;;;;;;;70.97;37.17;;;;;;;1.40;100.00;99237.44;5091800;28;20020;-74
2023/12/12 02:30:08;;;;;;;63.28;35.83;;;;;;;1.50;100.00;99242.09;5111509;28;20027;-73
2023/12/12 02:32:34;;;;;;;72.18;35.38;;;;;;;1.47;100.00;99235.22;5105993;28;20564;-74
2023/12/12 02:35:00;;;;;;;78.97;36.08;;;;;;;1.57;100.00;99219.72;5090971;28;20020;-74
2023/12/12 02:37:26;;;;;;;72.78;37.67;;;;;;;1.62;100.00;99236.28;5090995;28;20020;-74
2023/12/12 02:39:51;;;;;;;75.55;37.05;;;;;;;1.78;100.00;99210.28;5090792;28;20039;-74
2023/12/12 02:42:17;;;;;;;69.32;36.13;;;;;;;1.94;100.00;99218.50;5085683;28;20423;-73
2023/12/12 02:44:43;;;;;;;73.75;34.88;;;;;;;1.86;100.00;99222.63;5110558;28;20023;-74
2023/12/12 02:47:08;;;;;;;71.07;36.22;;;;;;;1.85;100.00;99225.69;5111120;28;20024;-73
2023/12/12 02:49:35;;;;;;;68.75;34.22;;;;;;;1.74;100.00;99239.53;5111257;28;20047;-74
2023/12/12 02:52:00;;;;;;;79.97;36.65;;;;;;;1.66;100.00;99238.19;5113411;28;20502;-74
2023/12/12 02:54:26;;;;;;;75.45;36.00;;;;;;;1.66;100.00;99235.44;5096635;28;20046;-74
2023/12/12 02:56:51;;;;;;;72.45;35.47;;;;;;;1.69;100.00;99239.56;5114832;28;20035;-73
2023/12/12 02:59:17;;;;;;;72.88;39.42;;;;;;;1.67;100.00;99230.72;5096430;28;20027;-74
2023/12/12 03:01:42;;;;;;;76.40;36.33;;;;;;;1.46;100.00;99252.03;5112063;28;20388;-73
2023/12/12 03:04:08;;;;;;;72.40;35.20;;;;;;;1.63;100.00;99265.50;5096146;28;20616;-73
2023/12/12 03:06:33;;;;;;;64.25;36.05;;;;;;;1.79;100.00;99261.56;5103637;28;20059;-73
2023/12/12 03:08:58;;;;;;;67.07;35.65;;;;;;;1.88;100.00;99272.03;5094086;28;20024;-73
2023/12/12 03:11:24;;;;;;;64.97;36.72;;;;;;;1.83;100.00;99270.09;5075974;28;20036;-73
2023/12/12 03:13:49;;;;;;;71.03;36.30;;;;;;;1.79;100.00;99261.56;5105444;28;20035;-73
2023/12/12 03:16:15;;;;;;;78.47;40.83;;;;;;;1.94;100.00;99268.16;5111333;28;20031;-74
2023/12/12 03:18:40;;;;;;;85.90;37.92;;;;;;;2.12;100.00;99282.41;5113755;28;20039;-74
2023/12/12 03:21:06;;;;;;;86.03;44.78;;;;;;;2.05;100.00;99271.66;5114003;28;20024;-74
2023/12/12 03:23:32;;;;;;;91.95;45.22;;;;;;;2.11;100.00;99276.03;5096187;28;20027;-73
2023/12/12 03:25:57;;;;;;;80.97;40.97;;;;;;;2.07;100.00;99275.81;5103824;28;20024;-73
2023/12/12 03:28:24;;;;;;;81.85;40.10;;;;;;;2.02;100.00;99269.50;5093892;28;20081;-73
2023/12/12 03:30:50;;;;;;;73.82;40.20;;;;;;;2.04;100.00;99267.25;5075818;28;20050;-73
2023/12/12 03:33:15;;;;;;;84.95;41.70;;;;;;;1.99;100.00;99254.31;5093735;28;20023;-74
2023/12/12 03:35:41;;;;;;;88.20;44.20;;;;;;;1.85;100.00;99264.31;5084561;28;20036;-73
2023/12/12 03:38:06;;;;;;;94.45;46.90;;;;;;;1.90;100.00;99267.03;5081437;28;20019;-75
2023/12/12 03:40:32;;;;;;;82.45;41.80;;;;;;;1.78;100.00;99272.91;5095666;28;20027;-75
2023/12/12 03:42:57;;;;;;;94.22;41.95;;;;;;;1.83;100.00;99261.81;5095454;28;20020;-75
2023/12/12 03:45:22;;;;;;;94.05;45.03;;;;;;;1.96;100.00;99257.66;5095234;28;20035;-75
2023/12/12 03:47:48;;;;;;;98.75;49.35;;;;;;;1.96;100.00;99272.25;5095592;28;20023;-75
2023/12/12 03:50:14;;;;;;;94.82;51.35;;;;;;;1.99;100.00;99295.69;5095460;28;20015;-75
2023/12/12 03:52:39;;;;;;;99.70;47.47;;;;;;;2.12;100.00;99287.91;5089280;28;20034;-75
2023/12/12 03:55:08;;;;;;;104.95;47.67;;;;;;;2.15;100.00;99284.59;5095283;28;20031;-75
2023/12/12 03:57:34;;;;;;;98.35;48.15;;;;;;;2.14;100.00;99271.91;5113756;28;20054;-75
2023/12/12 03:59:59;;;;;;;96.15;48.60;;;;;;;2.24;100.00;99271.84;5113438;28;20047;-75
2023/12/12 04:02:24;;;;;;;94.97;48.05;;;;;;;2.07;100.00;99252.91;5093751;28;20035;-75
2023/12/12 04:04:50;;;;;;;97.65;50.45;;;;;;;2.00;100.00;99244.94;5073920;28;20525;-75
2023/12/12 04:07:17;;;;;;;96.60;49.28;;;;;;;1.98;100.00;99247.16;5073030;28;20503;-75
2023/12/12 04:09:43;;;;;;;104.70;48.50;;;;;;;1.95;100.00;99259.56;5072131;28;20020;-75
2023/12/12 04:12:08;;;;;;;97.65;48.15;;;;;;;2.05;100.00;99246.84;5073217;28;20036;-75
2023/12/12 04:14:33;;;;;;;90.22;45.88;;;;;;;2.17;100.00;99260.28;5073093;28;20025;-75
2023/12/12 04:16:59;;;;;;;96.70;49.25;;;;;;;2.21;100.00;99259.44;5073438;28;20023;-75
2023/12/12 04:19:24;;;;;;;94.32;47.78;;;;;;;2.27;100.00;99257.47;5072977;28;20081;-75
2023/12/12 04:21:51;;;;;;;92.85;46.92;;;;;;;2.19;100.00;99255.34;5065241;28;20485;-75
2023/12/12 04:24:16;;;;;;;94.32;45.22;;;;;;;2.15;100.00;99245.94;5053249;28;20104;-75
2023/12/12 04:26:43;;;;;;;88.43;45.53;;;;;;;2.15;100.00;99257.00;5069234;28;20027;-75
2023/12/12 04:29:08;;;;;;;96.65;46.40;;;;;;;1.95;100.00;99256.00;5071754;28;20107;-75
2023/12/12 04:31:35;;;;;;;96.18;48.17;;;;;;;1.99;100.00;99240.53;5072715;28;20031;-75
2023/12/12 04:34:00;;;;;;;97.43;46.53;;;;;;;1.89;100.00;99235.06;5072936;28;20027;-75
2023/12/12 04:36:26;;;;;;;90.50;45.72;;;;;;;1.91;100.00;99235.59;5072829;28;20411;-75
2023/12/12 04:38:51;;;;;;;93.88;44.53;;;;;;;1.45;100.00;99242.94;5072677;28;20024;-75
2023/12/12 04:41:17;;;;;;;96.53;47.00;;;;;;;1.58;100.00;99244.28;5065000;28;20028;-75
2023/12/12 04:43:42;;;;;;;92.78;48.85;;;;;;;1.76;100.00;99250.28;5072700;28;20606;-75
2023/12/12 04:46:09;;;;;;;107.65;44.90;;;;;;;2.03;100.00;99262.84;5070675;28;20023;-75
2023/12/12 04:48:35;;;;;;;98.65;48.45;;;;;;;2.15;100.00;99265.28;5072798;28;20495;-74
2023/12/12 04:51:02;;;;;;;84.55;43.45;;;;;;;2.19;100.00;99252.56;5065430;28;20021;-75
2023/12/12 04:53:27;;;;;;;90.82;45.05;;;;;;;2.13;100.00;99260.06;5052514;28;20476;-75
2023/12/12 04:55:53;;;;;;;94.20;44.75;;;;;;;2.29;100.00;99266.28;5052827;28;20020;-74
2023/12/12 04:58:18;;;;;;;87.30;42.72;;;;;;;2.27;100.00;99260.22;5053453;28;20033;-75
2023/12/12 05:00:44;;;;;;;88.53;41.78;;;;;;;2.28;100.00;99267.41;5072037;28;20528;-75
2023/12/12 05:03:09;;;;;;;91.35;44.50;;;;;;;2.10;100.00;99263.34;5078962;28;20054;-76
2023/12/12 05:05:35;;;;;;;80.35;41.90;;;;;;;1.98;100.00;99269.22;5112719;28;20027;-75
2023/12/12 05:08:00;;;;;;;79.30;40.63;;;;;;;1.78;100.00;99261.88;5094421;28;20034;-75
2023/12/12 05:10:26;;;;;;;93.57;43.63;;;;;;;1.84;100.00;99263.47;5110928;28;20031;-74
2023/12/12 05:12:51;;;;;;;91.85;43.50;;;;;;;1.86;100.00;99261.25;5092485;28;20024;-74
2023/12/12 05:15:17;;;;;;;91.45;43.47;;;;;;;1.90;100.00;99256.84;5092155;28;20141;-74
2023/12/12 05:17:42;;;;;;;93.13;47.33;;;;;;;1.91;100.00;99264.00;5089617;28;20036;-78
2023/12/12 05:20:09;;;;;;;105.25;50.05;;;;;;;1.87;100.00;99278.66;5112638;28;20024;-80
2023/12/12 05:22:34;;;;;;;96.13;48.08;;;;;;;1.86;100.00;99277.81;5112093;28;20068;-77
2023/12/12 05:25:00;;;;;;;99.15;49.95;;;;;;;1.94;100.00;99277.22;5094178;28;20023;-74
2023/12/12 05:27:25;;;;;;;100.82;50.55;;;;;;;2.09;100.00;99292.91;5088812;28;20027;-75
2023/12/12 05:29:51;;;;;;;101.03;49.40;;;;;;;2.04;100.00;99279.13;5112442;28;20024;-75
2023/12/12 05:32:16;;;;;;;104.00;51.15;;;;;;;1.93;100.00;99283.84;5105234;28;20057;-74
2023/12/12 05:34:42;;;;;;;98.05;49.30;;;;;;;2.12;100.00;99285.16;5102511;28;20088;-75
2023/12/12 05:37:08;;;;;;;101.82;48.90;;;;;;;1.91;100.00;99288.00;5084767;28;20503;-75
2023/12/12 05:39:33;;;;;;;93.32;45.97;;;;;;;1.94;100.00;99299.31;5105352;28;20376;-74
2023/12/12 05:41:59;;;;;;;103.00;49.50;;;;;;;2.07;100.00;99308.09;5103872;28;20036;-75
2023/12/12 05:44:24;;;;;;;102.97;47.10;;;;;;;2.12;100.00;99307.25;5089861;28;20046;-75
2023/12/12 05:46:50;;;;;;;94.88;45.28;;;;;;;1.95;100.00;99294.63;5104338;27;20047;-73
2023/12/12 05:49:16;;;;;;;92.90;43.92;;;;;;;2.00;100.00;99304.81;5104658;28;20518;-75
2023/12/12 05:51:42;;;;;;;94.80;46.05;;;;;;;2.15;100.00;99302.00;5105137;28;20055;-75
2023/12/12 05:54:11;;;;;;;104.45;46.97;;;;;;;1.49;100.00;99323.13;5107473;28;20027;-78
2023/12/12 05:56:37;;;;;;;93.53;45.58;;;;;;;1.81;100.00;99308.19;5105928;28;20479;-75
2023/12/12 05:59:03;;;;;;;89.78;44.00;;;;;;;1.74;100.00;99308.47;5111784;28;20431;-75
2023/12/12 06:01:28;;;;;;;111.25;45.55;;;;;;;1.89;100.00;99306.78;5092850;28;20042;-72
2023/12/12 06:03:54;;;;;;;93.72;46.50;;;;;;;2.04;100.00;99314.97;5092947;28;20093;-73
2023/12/12 06:06:21;;;;;;;106.88;46.97;;;;;;;1.95;100.00;99319.47;5092945;28;20024;-74
2023/12/12 06:08:46;;;;;;;418.77;213.45;;;;;;;1.78;100.00;99319.78;5112280;28;20012;-74
2023/12/12 06:11:12;;;;;;;132.18;61.92;;;;;;;1.68;100.00;99329.72;5082604;28;20016;-74
2023/12/12 06:13:37;;;;;;;138.63;67.30;;;;;;;1.73;100.00;99333.56;5109585;28;20404;-73
2023/12/12 06:16:03;;;;;;;145.35;70.80;;;;;;;1.74;100.00;99330.53;5111918;28;20506;-73
2023/12/12 06:18:28;;;;;;;107.30;47.05;;;;;;;1.89;100.00;99326.91;5093534;28;20055;-73
2023/12/12 06:20:54;;;;;;;103.70;49.47;;;;;;;1.79;100.00;99326.94;5092955;28;20038;-70
2023/12/12 06:23:19;;;;;;;123.65;54.20;;;;;;;1.74;100.00;99335.22;5111192;28;20019;-71
2023/12/12 06:25:46;;;;;;;127.45;56.20;;;;;;;1.69;100.00;99319.53;5078864;28;20051;-70
2023/12/12 06:28:11;;;;;;;218.00;113.30;;;;;;;1.77;100.00;99321.69;5108582;28;20032;-69
2023/12/12 06:30:37;;;;;;;146.48;70.47;;;;;;;1.93;100.00;99318.88;5113115;28;20023;-73
2023/12/12 06:33:02;;;;;;;116.25;54.10;;;;;;;2.05;100.00;99324.09;5113206;27;20036;-73
2023/12/12 06:35:28;;;;;;;127.00;55.78;;;;;;;2.01;100.00;99334.88;5103999;28;20032;-70
2023/12/12 06:37:53;;;;;;;128.48;62.60;;;;;;;2.13;100.00;99325.44;5103916;27;20419;-70
2023/12/12 06:40:19;;;;;;;141.40;68.05;;;;;;;2.23;100.00;99322.66;5086363;28;20039;-72
2023/12/12 06:42:44;;;;;;;152.80;68.05;;;;;;;2.23;100.00;99325.41;5093815;28;20036;-72
2023/12/12 06:45:10;;;;;;;154.95;72.00;;;;;;;2.37;100.00;99318.16;5096709;28;20063;-70
2023/12/12 06:47:38;;;;;;;145.13;66.53;;;;;;;2.44;100.00;99314.28;5093086;28;20019;-72
2023/12/12 06:50:04;;;;;;;139.95;64.63;;;;;;;2.43;100.00;99320.91;5099339;27;20423;-71
2023/12/12 06:52:31;;;;;;;136.50;65.60;;;;;;;2.36;100.00;99307.41;5107122;27;20047;-74
2023/12/12 06:54:56;;;;;;;140.48;70.03;;;;;;;2.35;100.00;99316.78;5113348;28;20027;-71
2023/12/12 06:57:22;;;;;;;132.13;64.97;;;;;;;2.34;100.00;99318.72;5093869;28;20046;-69
2023/12/12 06:59:48;;;;;;;132.05;68.65;;;;;;;2.38;100.00;99322.56;5093147;28;20030;-71
2023/12/12 07:02:14;;;;;;;144.40;68.47;;;;;;;2.14;100.00;99322.41;5104396;27;20038;-73
2023/12/12 07:04:40;;;;;;;130.80;60.60;;;;;;;2.22;100.00;99332.84;5093238;28;20047;-73
2023/12/12 07:07:05;;;;;;;140.57;63.97;;;;;;;2.25;100.00;99314.91;5092643;28;20072;-73
2023/12/12 07:09:31;;;;;;;131.40;61.85;;;;;;;2.27;100.00;99320.97;5102899;28;20066;-77
2023/12/12 07:11:56;;;;;;;127.45;61.30;;;;;;;2.40;100.00;99325.06;5105421;28;20031;-77
2023/12/12 07:14:22;;;;;;;126.40;60.67;;;;;;;2.38;100.00;99328.09;5105949;28;20494;-78
2023/12/12 07:16:47;;;;;;;146.43;58.58;;;;;;;2.18;100.00;99339.25;5111830;28;20031;-78
2023/12/12 07:19:13;;;;;;;137.30;60.17;;;;;;;2.10;100.00;99337.88;5093308;28;20035;-78
2023/12/12 07:21:41;;;;;;;115.60;55.15;;;;;;;2.27;100.00;99347.75;5109366;28;20042;-78
2023/12/12 07:24:07;;;;;;;131.15;60.65;;;;;;;2.06;100.00;99348.66;5111132;28;20120;-77
2023/12/12 07:26:33;;;;;;;150.73;66.35;;;;;;;1.91;100.00;99349.53;5108559;28;20047;-77
2023/12/12 07:28:59;;;;;;;121.55;53.60;;;;;;;1.89;100.00;99354.50;5100122;28;20450;-77
2023/12/12 07:31:25;;;;;;;122.35;54.08;;;;;;;1.76;100.00;99355.91;5112250;28;20378;-77
2023/12/12 07:33:50;;;;;;;135.75;60.38;;;;;;;1.94;100.00;99346.19;5090506;27;20114;-72
2023/12/12 07:36:16;;;;;;;123.03;54.13;;;;;;;2.14;100.00;99349.16;5095404;28;20028;-73
2023/12/12 07:38:41;;;;;;;132.65;52.85;;;;;;;1.88;100.00;99343.75;5098695;28;20031;-72
2023/12/12 07:41:08;;;;;;;129.30;49.08;;;;;;;1.97;100.00;99350.34;5100584;28;20031;-72
2023/12/12 07:43:33;;;;;;;119.05;52.13;;;;;;;1.95;100.00;99360.84;5080363;28;20068;-72
2023/12/12 07:45:59;;;;;;;115.57;50.67;;;;;;;1.92;100.00;99366.88;5099958;28;20492;-73
2023/12/12 07:48:25;;;;;;;108.18;47.92;;;;;;;1.70;100.00;99384.59;5078895;28;20030;-73
2023/12/12 07:50:50;;;;;;;101.82;47.83;;;;;;;1.52;100.00;99363.94;5100248;28;20551;-73
2023/12/12 07:53:16;;;;;;;99.45;48.53;;;;;;;1.54;100.00;99378.28;5099881;27;20035;-73
2023/12/12 07:55:41;;;;;;;104.78;44.10;;;;;;;1.37;100.00;99376.63;5102491;27;20503;-74
2023/12/12 07:58:07;;;;;;;96.65;46.47;;;;;;;1.48;100.00;99358.16;5080101;28;20506;-73
2023/12/12 08:00:32;;;;;;;127.75;53.00;;;;;;;1.63;100.00;99367.50;5099157;28;20035;-77
2023/12/12 08:02:58;;;;;;;104.88;45.88;;;;;;;1.57;100.00;99371.38;5096931;28;20474;-73
2023/12/12 08:05:24;;;;;;;98.18;41.95;;;;;;;1.53;100.00;99379.38;5098494;28;20488;-72
2023/12/12 08:07:50;;;;;;;107.63;44.20;;;;;;;1.50;100.00;99382.69;5096108;27;20019;-72
2023/12/12 08:10:15;;;;;;;100.93;47.03;;;;;;;1.48;100.00;99382.97;5084938;28;20024;-72
2023/12/12 08:12:42;;;;;;;107.05;47.38;;;;;;;1.47;100.00;99375.81;5100451;28;20529;-72
2023/12/12 08:15:08;;;;;;;119.85;49.60;;;;;;;1.46;100.00;99367.81;5101476;28;20395;-72
2023/12/12 08:17:34;;;;;;;108.07;48.83;;;;;;;1.35;100.00;99380.78;5106904;28;20035;-73
2023/12/12 08:19:59;;;;;;;112.35;49.47;;;;;;;1.45;100.00;99374.41;5089815;28;20035;-73
2023/12/12 08:22:25;;;;;;;137.13;58.03;;;;;;;1.50;100.00;99371.66;5097576;28;20031;-72
2023/12/12 08:24:53;;;;;;;133.82;59.58;;;;;;;1.59;100.00;99382.97;5088284;28;20020;-72
2023/12/12 08:27:18;;;;;;;141.75;61.58;;;;;;;1.57;100.00;99379.63;5103719;28;20457;-72
2023/12/12 08:29:45;;;;;;;134.20;57.08;;;;;;;1.57;100.00;99380.47;5082802;28;20028;-72
2023/12/12 08:32:11;;;;;;;133.52;59.33;;;;;;;1.62;100.00;99374.94;5104438;27;20050;-72
2023/12/12 08:34:36;;;;;;;147.63;60.40;;;;;;;1.68;100.00;99379.38;5087916;28;20491;-72
2023/12/12 08:37:03;;;;;;;125.18;57.97;;;;;;;1.76;100.00;99377.97;5103016;28;20040;-78
2023/12/12 08:39:30;;;;;;;146.23;63.22;;;;;;;1.79;100.00;99377.41;5085838;28;20026;-81
2023/12/12 08:41:57;;;;;;;145.63;63.90;;;;;;;1.85;100.00;99380.97;5075731;28;20023;-78
2023/12/12 08:44:22;;;;;;;118.70;55.33;;;;;;;1.92;100.00;99364.13;5084975;28;20019;-78
2023/12/12 08:46:49;;;;;;;130.50;58.35;;;;;;;1.95;100.00;99369.91;5109749;27;20130;-79
2023/12/12 08:49:17;;;;;;;114.53;54.92;;;;;;;2.04;100.00;99370.16;5082892;28;20020;-79
2023/12/12 08:51:43;;;;;;;127.93;57.67;;;;;;;2.16;100.00;99363.50;5090196;28;20051;-79
2023/12/12 08:54:09;;;;;;;123.18;56.83;;;;;;;2.40;100.00;99363.69;5109829;28;20032;-80
2023/12/12 08:56:36;;;;;;;120.50;55.30;;;;;;;2.51;100.00;99350.66;5087586;28;20019;-80
2023/12/12 08:59:02;;;;;;;126.20;54.00;;;;;;;2.79;100.00;99345.53;5083535;28;20024;-80
2023/12/12 09:01:27;;;;;;;126.05;56.40;;;;;;;2.79;100.00;99353.84;5100005;27;20039;-78
2023/12/12 09:03:53;;;;;;;139.18;63.38;;;;;;;2.75;100.00;99359.09;5085803;28;20048;-79
2023/12/12 09:06:18;;;;;;;146.63;71.03;;;;;;;2.66;100.00;99349.75;5075027;28;20054;-82
2023/12/12 09:08:44;;;;;;;129.02;59.97;;;;;;;2.80;100.00;99355.47;5101329;27;20031;-78
2023/12/12 09:11:10;;;;;;;134.35;64.32;;;;;;;2.87;100.00;99355.97;5099416;27;20024;-79
2023/12/12 09:13:36;;;;;;;120.55;57.05;;;;;;;2.80;100.00;99345.25;5102158;27;20027;-78
2023/12/12 09:16:02;;;;;;;132.15;60.55;;;;;;;2.81;100.00;99355.19;5097191;28;20030;-79
2023/12/12 09:18:28;;;;;;;130.90;60.30;;;;;;;2.92;100.00;99352.34;5099162;27;20095;-79
2023/12/12 09:20:53;;;;;;;162.30;71.65;;;;;;;2.93;100.00;99346.56;5085536;27;20023;-79
2023/12/12 09:23:19;;;;;;;250.68;151.85;;;;;;;3.00;100.00;99335.16;5084305;28;20051;-79
2023/12/12 09:25:45;;;;;;;229.85;140.07;;;;;;;3.05;100.00;99323.25;5085963;28;20461;-79
2023/12/12 09:28:11;;;;;;;145.73;75.45;;;;;;;3.24;100.00;99328.91;5084433;28;20093;-81
2023/12/12 09:30:37;;;;;;;163.98;74.55;;;;;;;3.51;100.00;99316.50;5092614;28;20118;-81
2023/12/12 09:33:03;;;;;;;178.65;90.97;;;;;;;3.53;100.00;99317.00;5106439;28;20031;-75
2023/12/12 09:35:28;;;;;;;130.95;61.55;;;;;;;3.90;100.00;99325.78;5091440;28;20023;-84
2023/12/12 09:37:54;;;;;;;128.82;60.08;;;;;;;4.15;100.00;99327.41;5090053;28;20538;-81
2023/12/12 09:40:20;;;;;;;124.30;66.05;;;;;;;4.22;100.00;99315.97;5109547;28;20034;-82
2023/12/12 09:42:49;;;;;;;128.90;63.63;;;;;;;4.57;100.00;99308.31;5105211;27;20121;-79
2023/12/12 09:45:16;;;;;;;125.30;64.25;;;;;;;4.63;100.00;99312.66;5092749;28;20015;-80
2023/12/12 09:47:42;;;;;;;114.88;58.65;;;;;;;4.60;100.00;99296.66;5090407;28;20026;-81
2023/12/12 09:50:10;;;;;;;111.13;56.20;;;;;;;4.67;100.00;99298.19;5089297;28;20019;-80
2023/12/12 09:52:36;;;;;;;112.53;60.38;;;;;;;4.98;100.00;99311.59;5110590;28;20028;-83
2023/12/12 09:55:02;;;;;;;103.72;55.92;;;;;;;5.09;100.00;99309.47;5114765;28;20023;-82
2023/12/12 09:57:29;;;;;;;117.25;55.72;;;;;;;5.31;100.00;99314.41;5094374;28;20020;-85
2023/12/12 09:59:55;;;;;;;112.40;52.38;;;;;;;5.37;100.00;99307.63;5075966;28;20035;-85
2023/12/12 10:02:23;;;;;;;130.50;62.60;;;;;;;5.60;100.00;99307.78;5085679;28;20411;-81
2023/12/12 10:04:51;;;;;;;110.15;57.55;;;;;;;5.79;100.00;99304.91;5093382;28;20102;-82
2023/12/12 10:07:18;;;;;;;141.40;80.97;;;;;;;5.92;100.00;99292.19;5084714;28;20030;-82
2023/12/12 10:09:44;;;;;;;138.80;75.47;;;;;;;6.08;100.00;99291.91;5103139;28;20095;-82
2023/12/12 10:12:09;;;;;;;156.93;84.63;;;;;;;6.27;100.00;99303.69;5090448;28;20111;-83
2023/12/12 10:14:44;;;;;;;144.73;79.65;;;;;;;6.57;100.00;99290.28;5094554;28;20043;-83
2023/12/12 10:17:11;;;;;;;128.57;62.05;;;;;;;6.86;100.00;99300.16;5091037;28;20127;-75
2023/12/12 10:19:38;;;;;;;133.82;64.43;;;;;;;7.05;100.00;99301.97;5078588;28;20039;-79
2023/12/12 10:22:10;;;;;;;114.13;60.65;;;;;;;7.15;100.00;99289.75;5063132;28;20477;-78
2023/12/12 10:24:37;;;;;;;105.57;54.92;;;;;;;7.03;100.00;99284.78;5097129;28;20035;-72
2023/12/12 10:27:05;;;;;;;110.70;59.35;;;;;;;7.08;100.00;99284.63;5114829;28;20020;-73
2023/12/12 10:29:31;;;;;;;115.05;56.83;;;;;;;7.30;100.00;99274.66;5096253;28;20052;-73
2023/12/12 10:32:02;;;;;;;126.63;69.10;;;;;;;7.45;100.00;99274.25;5088618;28;20030;-73
2023/12/12 10:34:28;;;;;;;114.57;62.83;;;;;;;7.66;100.00;99273.69;5109214;27;20027;-73
2023/12/12 10:36:54;;;;;;;128.75;61.67;;;;;;;7.70;100.00;99276.66;5108950;27;20031;-72
2023/12/12 10:39:19;;;;;;;122.50;59.90;;;;;;;7.75;100.00;99278.50;5109084;27;20020;-81
2023/12/12 10:41:55;;;;;;;151.68;65.82;;;;;;;7.85;100.00;99276.22;5106542;28;20038;-76
2023/12/12 10:44:29;;;;;;;120.20;60.50;;;;;;;8.08;100.00;99280.88;5092238;28;20103;-74
2023/12/12 10:46:55;;;;;;;112.30;58.63;;;;;;;8.06;100.00;99288.75;5102210;27;20430;-77
2023/12/12 10:49:24;;;;;;;110.28;57.35;;;;;;;8.10;100.00;99286.97;5107959;28;20098;-74
2023/12/12 10:51:50;;;;;;;130.18;64.65;;;;;;;8.31;100.00;99275.22;5087259;28;20514;-76
2023/12/12 10:54:17;;;;;;;115.65;59.83;;;;;;;8.56;100.00;99274.47;5094840;28;20048;-73
2023/12/12 10:56:46;;;;;;;118.65;58.40;;;;;;;8.82;100.00;99273.69;5085948;28;20110;-79
2023/12/12 10:59:16;;;;;;;115.45;58.28;;;;;;;8.98;100.00;99281.53;5106048;28;20020;-77
2023/12/12 11:01:46;;;;;;;120.90;57.90;;;;;;;9.06;100.00;99277.94;5109564;28;21738;-77
2023/12/12 11:04:13;;;;;;;109.30;55.33;;;;;;;9.27;100.00;99277.22;5102718;28;20393;-79
2023/12/12 11:06:41;;;;;;;122.82;64.97;;;;;;;9.37;100.00;99274.09;5089641;28;20024;-78